Time;durP1;ratioP1;P1;durP2;ratioP2;P2;SDS_P1;SDS_P2;PMS_P1;PMS_P2;Temp;Humidity;BMP_temperature;BMP_pressure;BME280_temperature;BME280_humidity;BME280_pressure;Samples;Min_cycle;Max_cycle;Signal;HPM_P1;HPM_P2
2022/08/04 00:00:05;;;;;;;10.00;7.38;;;;;;;19.62;99.33;94874.25;6299413;22;20203;-78
2022/08/04 00:02:42;;;;;;;10.48;7.85;;;;;;;19.52;100.00;94884.81;6300773;22;20179;-79
2022/08/04 00:05:20;;;;;;;11.77;8.18;;;;;;;19.57;100.00;94882.16;6301649;22;20537;-81
2022/08/04 00:07:56;;;;;;;11.48;9.02;;;;;;;19.59;100.00;94880.06;6301748;22;20252;-81
2022/08/04 00:10:26;;;;;;;13.63;9.60;;;;;;;19.64;100.00;94880.03;6302710;22;20243;-83
2022/08/04 00:12:56;;;;;;;11.77;8.70;;;;;;;19.59;100.00;94877.44;6303271;22;20156;-82
2022/08/04 00:15:24;;;;;;;10.02;8.50;;;;;;;19.50;100.00;94862.41;6302604;22;20172;-82
2022/08/04 00:17:55;;;;;;;16.50;8.68;;;;;;;19.49;100.00;94872.16;6302005;22;20647;-82
2022/08/04 00:20:22;;;;;;;10.80;8.60;;;;;;;19.42;100.00;94868.25;6300609;22;20493;-79
2022/08/04 00:22:52;;;;;;;12.75;8.40;;;;;;;19.41;100.00;94871.91;6300697;22;20175;-79
2022/08/04 00:25:19;;;;;;;11.68;8.23;;;;;;;19.33;100.00;94870.59;6300921;22;20166;-78
2022/08/04 00:27:49;;;;;;;10.02;7.88;;;;;;;19.34;100.00;94864.25;6298764;22;20192;-79
2022/08/04 00:30:15;;;;;;;11.80;8.63;;;;;;;19.41;100.00;94864.81;6300528;22;20172;-79
2022/08/04 00:32:42;;;;;;;11.88;8.75;;;;;;;19.37;100.00;94861.09;6300686;22;20179;-79
2022/08/04 00:35:10;;;;;;;9.43;8.10;;;;;;;19.46;100.00;94874.53;6300504;22;20160;-79
2022/08/04 00:37:38;;;;;;;10.25;7.82;;;;;;;19.52;100.00;94876.91;6301126;22;21125;-79
2022/08/04 00:40:18;;;;;;;10.15;7.72;;;;;;;19.51;100.00;94872.69;6302074;22;20172;-79
2022/08/04 00:42:51;;;;;;;11.52;7.15;;;;;;;19.60;100.00;94868.44;6302918;22;20227;-79
2022/08/04 00:45:53;;;;;;;13.52;7.68;;;;;;;19.63;100.00;94875.03;6303311;22;20224;-79
2022/08/04 00:48:37;;;;;;;10.25;7.50;;;;;;;19.68;100.00;94878.44;6290295;22;20210;-79
2022/08/04 00:51:15;;;;;;;9.88;7.35;;;;;;;19.67;100.00;94879.50;6302097;22;20190;-80
2022/08/04 00:53:54;;;;;;;11.68;7.35;;;;;;;19.61;99.82;94874.50;6299893;22;20248;-79
2022/08/04 00:56:47;;;;;;;10.15;7.70;;;;;;;19.65;99.84;94868.41;6301901;22;20231;-77
2022/08/04 00:59:42;;;;;;;11.82;7.22;;;;;;;19.71;99.43;94885.03;6301981;22;20521;-77
2022/08/04 01:02:20;;;;;;;12.20;7.78;;;;;;;19.71;99.34;94882.41;6274212;22;20168;-78
2022/08/04 01:04:56;;;;;;;14.48;8.25;;;;;;;19.66;98.64;94877.91;6302103;22;20152;-78
2022/08/04 01:07:42;;;;;;;12.57;7.93;;;;;;;19.72;97.32;94878.69;6299690;22;20179;-77
2022/08/04 01:10:19;;;;;;;17.55;8.60;;;;;;;19.66;97.65;94887.66;6300818;22;20160;-77
2022/08/04 01:13:07;;;;;;;15.80;8.57;;;;;;;19.68;96.79;94894.25;6301600;22;20148;-77
2022/08/04 01:15:40;;;;;;;14.15;8.70;;;;;;;19.58;97.54;94894.28;6300616;22;20587;-78
2022/08/04 01:18:08;;;;;;;11.77;7.78;;;;;;;19.56;97.50;94896.41;6301846;22;20704;-77
2022/08/04 01:20:47;;;;;;;15.85;9.15;;;;;;;19.47;97.93;94898.00;6301808;22;20175;-78
2022/08/04 01:24:01;;;;;;;14.20;8.27;;;;;;;19.46;98.58;94893.00;6301875;22;20167;-78
2022/08/04 01:26:48;;;;;;;14.48;8.55;;;;;;;19.51;98.20;94906.19;6301494;22;20163;-78
2022/08/04 01:29:18;;;;;;;14.27;8.35;;;;;;;19.45;99.10;94904.63;6301707;22;20204;-77
2022/08/04 01:32:00;;;;;;;9.60;7.28;;;;;;;19.45;99.63;94904.63;6300969;22;20172;-79
2022/08/04 01:34:29;;;;;;;12.60;8.63;;;;;;;19.45;99.36;94888.78;6302249;22;20156;-77
2022/08/04 01:37:02;;;;;;;15.35;8.18;;;;;;;19.37;99.36;94882.16;6301784;22;20249;-79
2022/08/04 01:39:41;;;;;;;12.30;7.88;;;;;;;19.44;99.59;94885.38;6301487;22;20168;-78
2022/08/04 01:42:09;;;;;;;12.98;8.23;;;;;;;19.35;99.62;94873.75;6302621;22;20210;-79
2022/08/04 01:44:40;;;;;;;11.68;8.20;;;;;;;19.43;99.39;94880.34;6301803;22;20662;-79
2022/08/04 01:47:09;;;;;;;9.70;7.60;;;;;;;19.42;99.41;94884.84;6301537;22;20160;-78
2022/08/04 01:49:38;;;;;;;11.73;7.65;;;;;;;19.37;98.96;94882.16;6300265;22;20195;-78
2022/08/04 01:52:09;;;;;;;14.82;8.00;;;;;;;19.33;97.76;94878.50;6301174;22;20164;-77
2022/08/04 01:54:41;;;;;;;13.50;7.78;;;;;;;19.32;97.68;94891.94;6300786;22;20156;-77
2022/08/04 01:57:10;;;;;;;11.32;7.68;;;;;;;19.24;98.70;94882.72;6301513;22;20160;-77
2022/08/04 01:59:39;;;;;;;11.80;7.72;;;;;;;19.24;98.85;94895.91;6300319;22;20188;-77
2022/08/04 02:02:06;;;;;;;14.27;7.20;;;;;;;19.22;98.57;94898.00;6301501;22;20873;-78
2022/08/04 02:04:35;;;;;;;11.15;6.90;;;;;;;19.22;98.35;94890.88;6301146;22;20171;-77
2022/08/04 02:07:24;;;;;;;10.75;6.90;;;;;;;19.22;98.70;94888.25;6301219;22;20176;-77
2022/08/04 02:10:02;;;;;;;11.10;6.63;;;;;;;19.22;98.35;94879.56;6299253;22;20251;-78
2022/08/04 02:12:42;;;;;;;7.90;6.05;;;;;;;19.18;97.25;94876.69;6301018;22;20148;-77
2022/08/04 02:15:19;;;;;;;6.57;5.88;;;;;;;19.21;96.68;94878.00;6302534;22;20156;-78
2022/08/04 02:17:53;;;;;;;10.93;6.22;;;;;;;19.16;97.39;94878.00;6300170;22;20251;-78
2022/08/04 02:20:24;;;;;;;10.63;6.60;;;;;;;19.15;97.63;94877.22;6300947;22;20156;-77
2022/08/04 02:22:58;;;;;;;9.00;6.35;;;;;;;19.15;97.33;94887.75;6301180;22;20152;-77
2022/08/04 02:25:26;;;;;;;9.35;6.70;;;;;;;19.12;97.23;94875.09;6299947;22;20217;-77
2022/08/04 02:28:11;;;;;;;10.70;7.15;;;;;;;19.14;96.87;94883.53;6300641;22;20206;-78
2022/08/04 02:30:50;;;;;;;10.52;6.72;;;;;;;19.10;97.52;94874.59;6301303;22;20183;-78
2022/08/04 02:33:23;;;;;;;10.00;7.05;;;;;;;19.02;98.53;94879.56;6286076;22;20152;-76
2022/08/04 02:35:53;;;;;;;9.07;6.70;;;;;;;19.03;98.59;94878.53;6297001;22;20187;-77
2022/08/04 02:38:27;;;;;;;8.27;6.53;;;;;;;18.90;99.02;94876.44;6300942;22;20155;-76
2022/08/04 02:40:55;;;;;;;10.15;6.45;;;;;;;18.93;98.63;94879.31;6300883;22;20489;-77
2022/08/04 02:43:25;;;;;;;11.25;6.68;;;;;;;18.96;98.24;94884.06;6298907;22;20165;-76
2022/08/04 02:45:56;;;;;;;9.15;6.10;;;;;;;18.89;97.45;94875.63;6298900;22;20160;-76
2022/08/04 02:48:24;;;;;;;8.15;6.78;;;;;;;18.79;98.15;94886.16;6299243;22;20184;-78
2022/08/04 02:50:54;;;;;;;8.00;6.40;;;;;;;18.60;98.82;94880.63;6301846;22;20168;-78
2022/08/04 02:53:22;;;;;;;7.88;5.97;;;;;;;18.52;99.73;94886.41;6301285;22;20171;-78
2022/08/04 02:55:52;;;;;;;8.85;5.70;;;;;;;18.48;100.00;94881.88;6300114;22;20173;-79
2022/08/04 02:58:21;;;;;;;8.57;5.80;;;;;;;18.51;99.58;94876.13;6301388;22;20218;-78
2022/08/04 03:00:50;;;;;;;10.05;6.13;;;;;;;18.47;99.72;94888.22;6301156;22;20168;-80
2022/08/04 03:03:26;;;;;;;10.82;6.20;;;;;;;18.44;99.61;94884.25;6301852;22;20623;-79
2022/08/04 03:06:22;;;;;;;7.85;6.32;;;;;;;18.50;99.18;94892.97;6300844;22;20156;-77
2022/08/04 03:09:07;;;;;;;8.53;6.67;;;;;;;18.45;98.69;94890.31;6300740;22;20192;-78
2022/08/04 03:12:04;;;;;;;10.70;6.80;;;;;;;18.43;98.90;94889.78;6300660;22;20171;-78
2022/08/04 03:15:07;;;;;;;13.73;7.93;;;;;;;18.40;98.08;94890.31;6248756;22;20164;-79
2022/08/04 03:18:07;;;;;;;12.40;7.70;;;;;;;18.26;99.43;94891.84;6262513;22;20223;-79
2022/08/04 03:20:50;;;;;;;11.50;7.00;;;;;;;18.14;100.00;94890.25;6301676;22;20171;-79
2022/08/04 03:23:40;;;;;;;10.60;7.17;;;;;;;18.12;100.00;94896.81;6301061;22;20157;-78
2022/08/04 03:26:48;;;;;;;11.03;7.20;;;;;;;18.15;100.00;94891.03;6299569;22;20157;-79
2022/08/04 03:29:38;;;;;;;12.43;6.30;;;;;;;18.16;100.00;94882.09;6300511;22;20180;-79
2022/08/04 03:32:41;;;;;;;7.03;6.13;;;;;;;18.20;100.00;94883.16;6300785;22;20678;-79
2022/08/04 03:35:30;;;;;;;7.10;6.30;;;;;;;18.22;100.00;94881.03;6300779;22;20160;-78
2022/08/04 03:38:22;;;;;;;12.07;6.47;;;;;;;18.17;100.00;94881.03;6299469;22;20160;-75
2022/08/04 03:41:12;;;;;;;9.53;6.07;;;;;;;18.13;100.00;94887.84;6300153;22;20483;-75
2022/08/04 03:44:15;;;;;;;11.77;7.07;;;;;;;18.20;100.00;94879.72;6298650;22;20156;-75
2022/08/04 03:47:16;;;;;;;7.60;5.90;;;;;;;18.20;100.00;94885.00;6299800;22;20229;-75
2022/08/04 03:50:20;;;;;;;13.37;7.00;;;;;;;18.18;100.00;94892.38;6298918;22;20199;-78
2022/08/04 03:53:27;;;;;;;8.10;6.90;;;;;;;18.25;100.00;94888.41;6299671;22;20218;-76
2022/08/04 03:56:15;;;;;;;12.93;6.53;;;;;;;18.31;100.00;94876.06;6264479;22;20588;-76
2022/08/04 03:59:23;;;;;;;9.73;6.50;;;;;;;18.33;100.00;94887.91;6300135;22;20164;-77
2022/08/04 04:02:07;;;;;;;11.63;6.38;;;;;;;18.38;99.69;94884.50;6273328;22;20219;-76
2022/08/04 04:05:04;;;;;;;9.07;6.32;;;;;;;18.42;99.63;94890.81;6274645;22;20160;-76
2022/08/04 04:08:06;;;;;;;12.43;7.30;;;;;;;18.49;98.56;94894.84;6291510;22;20907;-75
2022/08/04 04:11:08;;;;;;;11.17;7.37;;;;;;;18.44;98.41;94899.28;6296375;22;20175;-75
2022/08/04 04:14:03;;;;;;;11.68;7.45;;;;;;;18.30;99.20;94903.41;6297427;22;20159;-75
2022/08/04 04:16:43;;;;;;;10.27;6.80;;;;;;;18.32;100.00;94898.72;6297924;22;20160;-75
2022/08/04 04:19:33;;;;;;;17.03;7.43;;;;;;;18.22;100.00;94909.19;6298651;22;20603;-75
2022/08/04 04:22:19;;;;;;;11.50;6.90;;;;;;;18.31;100.00;94905.81;6297341;22;20192;-75
2022/08/04 04:24:59;;;;;;;8.87;7.17;;;;;;;18.33;100.00;94897.66;6300212;22;20159;-74
2022/08/04 04:27:40;;;;;;;7.40;6.40;;;;;;;18.40;100.00;94896.34;6297787;22;20195;-74
2022/08/04 04:30:12;;;;;;;9.17;7.07;;;;;;;18.45;99.98;94906.91;6298235;22;20180;-74
2022/08/04 04:33:03;;;;;;;13.73;7.40;;;;;;;18.54;99.28;94908.00;6298806;22;20156;-73
2022/08/04 04:35:37;;;;;;;11.10;7.22;;;;;;;18.60;98.71;94904.31;6298504;22;20164;-74
2022/08/04 04:38:31;;;;;;;13.23;7.07;;;;;;;18.61;98.74;94900.63;6298974;22;20166;-73
2022/08/04 04:41:13;;;;;;;12.33;7.00;;;;;;;18.71;98.16;94910.38;6298822;22;20171;-74
2022/08/04 04:44:19;;;;;;;11.40;7.35;;;;;;;18.67;97.29;94912.75;6297572;22;20183;-74
2022/08/04 04:46:55;;;;;;;10.25;7.88;;;;;;;18.47;98.74;94901.38;6283080;22;20179;-73
2022/08/04 04:49:31;;;;;;;14.98;8.57;;;;;;;18.44;99.51;94915.81;6299502;22;20172;-73
2022/08/04 04:52:05;;;;;;;13.45;8.68;;;;;;;18.42;100.00;94915.31;6297956;22;20167;-75
2022/08/04 04:54:37;;;;;;;15.40;8.83;;;;;;;18.36;100.00;94912.91;6299020;22;20167;-74
2022/08/04 04:57:11;;;;;;;10.33;8.30;;;;;;;18.22;100.00;94917.88;6299075;22;20160;-74
2022/08/04 04:59:47;;;;;;;15.90;8.60;;;;;;;18.25;100.00;94917.38;6298320;22;20168;-73
2022/08/04 05:02:40;;;;;;;10.80;8.00;;;;;;;18.25;100.00;94911.31;6297988;22;20642;-74
2022/08/04 05:05:21;;;;;;;13.30;8.10;;;;;;;18.32;100.00;94911.88;6298615;22;20167;-74
2022/08/04 05:08:32;;;;;;;15.43;8.63;;;;;;;18.47;100.00;94917.94;6297496;22;20162;-73
2022/08/04 05:11:23;;;;;;;12.32;8.55;;;;;;;18.54;100.00;94910.63;6245963;22;20171;-73
2022/08/04 05:13:54;;;;;;;15.97;8.27;;;;;;;18.60;100.00;94920.13;6298069;22;20997;-73
2022/08/04 05:16:27;;;;;;;16.75;8.07;;;;;;;18.70;100.00;94917.50;6298334;22;20163;-74
2022/08/04 05:19:03;;;;;;;33.47;8.95;;;;;;;18.74;100.00;94917.75;6298936;22;20160;-76
2022/08/04 05:21:39;;;;;;;13.43;7.80;;;;;;;18.83;100.00;94920.66;6297032;22;20160;-76
2022/08/04 05:24:10;;;;;;;15.60;8.52;;;;;;;18.89;99.31;94917.00;6297218;22;20164;-77
2022/08/04 05:26:44;;;;;;;10.93;8.20;;;;;;;19.00;98.86;94929.09;6297767;22;20172;-74
2022/08/04 05:29:16;;;;;;;11.65;8.43;;;;;;;19.10;98.14;94915.94;6297271;22;20191;-74
2022/08/04 05:31:49;;;;;;;12.13;8.30;;;;;;;19.12;97.31;94921.75;6295399;22;20153;-75
2022/08/04 05:34:22;;;;;;;11.15;8.98;;;;;;;19.16;96.68;94920.94;6297188;22;20152;-75
2022/08/04 05:36:51;;;;;;;19.80;9.05;;;;;;;19.20;96.62;94921.19;6298235;22;20179;-75
2022/08/04 05:39:34;;;;;;;16.40;9.23;;;;;;;19.34;95.87;94918.81;6297528;22;20175;-75
2022/08/04 05:42:01;;;;;;;12.38;9.45;;;;;;;19.35;95.42;94923.84;6296359;22;20167;-75
2022/08/04 05:44:28;;;;;;;11.05;8.18;;;;;;;19.32;96.18;94920.94;6296958;22;20175;-75
2022/08/04 05:46:58;;;;;;;13.40;10.10;;;;;;;19.40;96.33;94925.69;6297210;22;20656;-74
2022/08/04 05:49:27;;;;;;;13.10;9.70;;;;;;;19.50;95.17;94926.47;6296251;22;20200;-76
2022/08/04 05:51:58;;;;;;;11.55;8.88;;;;;;;19.58;95.02;94931.22;6296986;22;20172;-77
2022/08/04 05:54:26;;;;;;;13.35;9.35;;;;;;;19.68;95.19;94927.78;6297425;22;20234;-76
2022/08/04 05:56:54;;;;;;;13.95;9.35;;;;;;;19.79;94.17;94926.69;6296153;22;20168;-76
2022/08/04 05:59:24;;;;;;;13.75;9.68;;;;;;;19.81;93.67;94930.63;6296510;22;20503;-76
2022/08/04 06:01:53;;;;;;;14.35;9.63;;;;;;;19.85;93.89;94930.88;6296065;22;20179;-76
2022/08/04 06:04:22;;;;;;;15.00;9.77;;;;;;;19.86;93.10;94918.47;6296858;22;20175;-76
2022/08/04 06:06:50;;;;;;;12.75;9.75;;;;;;;19.92;94.10;94931.38;6297827;22;20224;-75
2022/08/04 06:09:17;;;;;;;17.52;9.45;;;;;;;20.01;93.26;94936.88;6296566;22;20678;-76
2022/08/04 06:11:46;;;;;;;15.25;10.48;;;;;;;19.98;93.66;94938.22;6296232;22;20624;-76
2022/08/04 06:14:15;;;;;;;14.30;9.77;;;;;;;20.07;93.62;94943.75;6297488;22;20160;-76
2022/08/04 06:16:44;;;;;;;18.40;9.63;;;;;;;20.18;93.20;94946.06;6297423;22;20172;-75
2022/08/04 06:19:13;;;;;;;15.02;10.23;;;;;;;20.07;94.12;94941.88;6297600;22;20165;-75
2022/08/04 06:21:45;;;;;;;13.48;10.07;;;;;;;20.24;93.32;94945.00;6296050;22;21047;-76
2022/08/04 06:24:15;;;;;;;13.68;10.30;;;;;;;20.31;93.31;94942.09;6297532;22;20165;-76
2022/08/04 06:26:45;;;;;;;18.25;10.20;;;;;;;20.31;92.64;94921.78;6297924;22;20198;-76
2022/08/04 06:29:21;;;;;;;18.67;10.95;;;;;;;20.55;91.44;94936.97;6297958;22;20191;-76
2022/08/04 06:31:57;;;;;;;15.60;11.02;;;;;;;20.63;90.47;94939.81;6295748;22;20599;-76
2022/08/04 06:34:25;;;;;;;15.55;10.43;;;;;;;20.80;91.45;94945.53;6296550;22;20160;-81
2022/08/04 06:36:54;;;;;;;15.20;10.43;;;;;;;20.88;89.59;94949.44;6301927;22;20171;-83
2022/08/04 06:39:24;;;;;;;17.77;10.18;;;;;;;20.88;88.36;94934.38;6303797;22;20164;-83
2022/08/04 06:41:52;;;;;;;17.73;9.80;;;;;;;20.82;87.76;94932.81;6303088;22;20172;-83
2022/08/04 06:44:20;;;;;;;16.25;9.25;;;;;;;20.93;88.83;94942.25;6302194;22;20171;-82
2022/08/04 06:46:48;;;;;;;11.75;8.43;;;;;;;21.12;89.94;94941.63;6303393;22;20176;-83
2022/08/04 06:49:17;;;;;;;13.43;8.80;;;;;;;21.21;88.83;94924.13;6302422;22;20191;-83
2022/08/04 06:51:46;;;;;;;16.42;9.05;;;;;;;21.49;86.32;94939.19;6300469;22;20172;-81
2022/08/04 06:54:14;;;;;;;12.23;9.38;;;;;;;21.62;85.42;94946.47;6301571;22;20179;-83
2022/08/04 06:56:44;;;;;;;11.07;9.35;;;;;;;21.65;85.24;94939.81;6301051;22;20657;-84
2022/08/04 06:59:12;;;;;;;17.75;9.63;;;;;;;21.68;84.95;94936.63;6300305;22;20704;-85
2022/08/04 07:01:40;;;;;;;16.90;9.18;;;;;;;21.78;83.60;94928.59;6299371;22;20173;-84
2022/08/04 07:04:07;;;;;;;18.75;9.63;;;;;;;21.84;83.74;94938.84;6302351;22;20172;-83
2022/08/04 07:06:34;;;;;;;19.27;10.38;;;;;;;21.86;82.87;94936.72;6302447;22;20654;-81
2022/08/04 07:09:02;;;;;;;11.18;9.65;;;;;;;21.94;82.48;94940.63;6304238;22;20196;-85
2022/08/04 07:11:33;;;;;;;12.77;9.70;;;;;;;22.01;82.50;94936.59;6302012;22;20168;-81
2022/08/04 07:14:00;;;;;;;15.50;8.77;;;;;;;22.14;81.22;94935.09;6300299;22;20260;-81
2022/08/04 07:16:29;;;;;;;11.68;8.27;;;;;;;22.49;80.85;94934.66;6290438;22;20175;-85
2022/08/04 07:18:56;;;;;;;13.07;8.65;;;;;;;22.87;77.92;94932.84;6294836;22;20168;-85
2022/08/04 07:21:25;;;;;;;12.25;8.23;;;;;;;23.11;76.69;94930.09;6303478;22;20175;-84
2022/08/04 07:23:52;;;;;;;11.77;8.05;;;;;;;23.40;75.71;94936.03;6302853;22;20209;-84
2022/08/04 07:26:19;;;;;;;16.90;7.88;;;;;;;23.57;73.92;94930.16;6301075;22;20497;-82
2022/08/04 07:28:47;;;;;;;14.45;8.65;;;;;;;23.55;72.72;94925.13;6301970;22;20168;-84
2022/08/04 07:31:17;;;;;;;16.77;8.70;;;;;;;23.55;72.47;94925.13;6301187;22;20164;-84
2022/08/04 07:33:44;;;;;;;12.07;7.68;;;;;;;23.74;72.78;94922.41;6298557;22;20175;-83
2022/08/04 07:36:13;;;;;;;12.55;8.48;;;;;;;23.90;71.91;94928.22;6298482;22;20172;-80
2022/08/04 07:38:41;;;;;;;12.02;8.60;;;;;;;23.96;70.89;94916.41;6300222;22;20204;-84
2022/08/04 07:41:08;;;;;;;13.07;9.15;;;;;;;24.07;71.16;94925.78;6298106;22;20165;-81
2022/08/04 07:43:36;;;;;;;18.88;8.80;;;;;;;24.12;70.76;94923.06;6299056;22;20164;-81
2022/08/04 07:46:05;;;;;;;12.90;9.10;;;;;;;24.11;69.47;94916.97;6298993;22;20172;-82
2022/08/04 07:48:32;;;;;;;12.27;8.50;;;;;;;24.23;70.60;94924.44;6300102;22;20230;-84
2022/08/04 07:51:01;;;;;;;14.98;8.30;;;;;;;24.32;69.64;94922.66;6294957;22;20189;-80
2022/08/04 07:53:29;;;;;;;11.93;8.13;;;;;;;24.43;68.77;94923.22;6295492;22;20186;-81
2022/08/04 07:55:56;;;;;;;11.85;7.78;;;;;;;24.62;68.79;94929.19;6296404;22;20164;-82
2022/08/04 07:58:23;;;;;;;14.20;9.55;;;;;;;24.74;66.01;94926.78;6296164;22;20168;-80
2022/08/04 08:00:51;;;;;;;12.07;7.88;;;;;;;24.64;66.49;94925.16;6296959;22;20172;-80
2022/08/04 08:03:20;;;;;;;12.13;8.13;;;;;;;24.63;66.49;94920.13;6296734;22;20172;-79
2022/08/04 08:05:47;;;;;;;13.65;7.28;;;;;;;24.76;66.90;94924.66;6295736;22;20517;-79
2022/08/04 08:08:14;;;;;;;14.73;8.00;;;;;;;24.74;65.47;94919.63;6296933;22;20191;-78
2022/08/04 08:10:47;;;;;;;9.98;7.53;;;;;;;24.80;65.44;94918.44;6296273;22;20275;-78
2022/08/04 08:13:14;;;;;;;14.18;8.20;;;;;;;24.84;66.14;94921.28;6295870;22;20304;-79
2022/08/04 08:15:44;;;;;;;14.18;7.47;;;;;;;24.90;64.87;94921.97;6294598;22;20168;-79
2022/08/04 08:18:11;;;;;;;9.82;7.60;;;;;;;24.98;64.67;94921.25;6295518;22;20211;-78
2022/08/04 08:20:39;;;;;;;11.65;9.45;;;;;;;25.01;63.47;94932.06;6296506;22;20172;-77
2022/08/04 08:23:08;;;;;;;17.40;9.45;;;;;;;24.88;64.13;94924.16;6296147;22;20187;-78
2022/08/04 08:25:36;;;;;;;11.50;7.95;;;;;;;24.84;65.54;94918.63;6294429;22;20250;-80
2022/08/04 08:28:04;;;;;;;9.45;7.32;;;;;;;25.05;65.05;94927.72;6293766;22;20943;-80
2022/08/04 08:30:32;;;;;;;13.82;8.00;;;;;;;25.19;64.49;94930.34;6294630;22;20231;-79
2022/08/04 08:33:02;;;;;;;15.40;8.85;;;;;;;25.23;63.71;94931.28;6295486;22;20179;-80
2022/08/04 08:35:34;;;;;;;15.02;8.93;;;;;;;25.23;63.60;94929.41;6294885;22;20187;-79
2022/08/04 08:38:07;;;;;;;12.77;7.82;;;;;;;25.35;63.51;94927.00;6295644;22;20161;-79
2022/08/04 08:40:46;;;;;;;13.63;7.30;;;;;;;25.62;62.80;94938.63;6298042;22;20149;-75
2022/08/04 08:43:40;;;;;;;12.60;8.80;;;;;;;25.69;62.40;94934.41;6296549;22;20160;-83
2022/08/04 08:46:44;;;;;;;12.93;8.23;;;;;;;25.67;62.22;94930.50;6294888;22;20222;-79
2022/08/04 08:49:47;;;;;;;12.15;9.43;;;;;;;25.81;61.03;94921.31;6295098;22;20175;-79
2022/08/04 08:52:30;;;;;;;15.18;8.93;;;;;;;25.81;60.78;94929.31;6294741;22;20175;-78
2022/08/04 08:55:19;;;;;;;10.38;7.38;;;;;;;25.93;60.46;94934.06;6295530;22;20163;-79
2022/08/04 08:58:21;;;;;;;13.98;7.25;;;;;;;26.12;60.38;94926.59;6295593;22;20191;-79
2022/08/04 09:01:00;;;;;;;8.77;6.57;;;;;;;26.23;59.97;94916.50;6193552;22;20562;-79
2022/08/04 09:03:52;;;;;;;10.00;6.05;;;;;;;26.40;59.22;94925.34;6295961;22;20152;-79
2022/08/04 09:06:48;;;;;;;8.65;5.75;;;;;;;26.45;59.40;94921.72;6299870;22;20153;-84
2022/08/04 09:09:45;;;;;;;9.65;6.45;;;;;;;26.58;58.57;94920.78;6274759;22;20228;-84
2022/08/04 09:12:21;;;;;;;8.02;5.40;;;;;;;26.73;57.95;94920.34;6301431;22;20160;-84
2022/08/04 09:14:53;;;;;;;12.27;5.82;;;;;;;26.87;57.55;94905.00;6302009;22;20483;-84
2022/08/04 09:17:27;;;;;;;6.13;5.47;;;;;;;26.94;55.67;94913.34;6300074;22;20159;-84
2022/08/04 09:19:59;;;;;;;7.07;5.15;;;;;;;27.03;55.92;94919.47;6301778;22;20152;-84
2022/08/04 09:22:35;;;;;;;9.82;5.05;;;;;;;27.00;54.53;94905.97;6299928;22;20160;-84
2022/08/04 09:25:07;;;;;;;7.95;4.45;;;;;;;27.06;52.95;94907.38;6301105;22;20157;-85
2022/08/04 09:27:44;;;;;;;4.97;4.43;;;;;;;27.23;52.92;94904.69;6300204;22;20614;-84
2022/08/04 09:30:13;;;;;;;4.40;4.00;;;;;;;27.41;53.35;94902.78;6300583;22;20176;-85
2022/08/04 09:32:58;;;;;;;11.43;4.53;;;;;;;27.49;51.68;94907.34;6300876;22;20665;-85
2022/08/04 09:35:34;;;;;;;5.93;4.72;;;;;;;27.61;50.95;94902.13;6298216;22;20206;-75
2022/08/04 09:38:11;;;;;;;7.68;4.15;;;;;;;27.80;50.36;94904.41;6296214;22;20171;-85
2022/08/04 09:40:46;;;;;;;4.88;3.60;;;;;;;28.02;47.39;94912.97;6298982;22;20168;-79
2022/08/04 09:43:28;;;;;;;12.32;4.00;;;;;;;27.98;46.37;94912.06;6296925;22;20152;-79
2022/08/04 09:46:02;;;;;;;5.70;3.80;;;;;;;27.93;45.57;94909.56;6294322;22;20218;-79
2022/08/04 09:48:37;;;;;;;5.80;4.30;;;;;;;27.83;46.57;94903.78;6297309;22;20816;-78
2022/08/04 09:51:14;;;;;;;7.22;4.50;;;;;;;28.12;48.78;94909.19;6297371;22;20179;-80
2022/08/04 09:53:50;;;;;;;10.63;4.88;;;;;;;28.38;47.01;94906.38;6296739;22;20156;-78
2022/08/04 09:56:25;;;;;;;8.82;4.47;;;;;;;28.32;45.83;94916.47;6297112;22;20160;-78
2022/08/04 09:59:06;;;;;;;5.75;3.83;;;;;;;28.06;44.52;94911.25;6297406;22;20152;-80
2022/08/04 10:01:34;;;;;;;5.63;3.58;;;;;;;27.99;43.58;94902.16;6295983;22;20632;-80
2022/08/04 10:04:03;;;;;;;3.38;2.90;;;;;;;28.03;41.55;94908.41;6296646;22;20168;-79
2022/08/04 10:06:45;;;;;;;6.40;3.20;;;;;;;28.21;41.87;94901.13;6297122;22;20165;-80
2022/08/04 10:09:34;;;;;;;3.63;3.25;;;;;;;28.31;40.21;94903.44;6296488;22;20199;-79
2022/08/04 10:12:11;;;;;;;6.63;3.05;;;;;;;28.43;41.84;94895.47;6297518;22;20180;-78
2022/08/04 10:14:44;;;;;;;6.15;3.40;;;;;;;28.66;42.09;94892.22;6298582;22;20164;-79
2022/08/04 10:17:39;;;;;;;7.07;3.95;;;;;;;28.92;41.01;94891.25;6298209;22;20163;-78
2022/08/04 10:20:11;;;;;;;7.20;3.75;;;;;;;28.94;41.74;94884.47;6298092;22;20256;-80
2022/08/04 10:22:43;;;;;;;5.53;3.50;;;;;;;29.15;40.41;94898.59;6298542;22;20226;-80
2022/08/04 10:25:22;;;;;;;4.45;3.42;;;;;;;29.42;40.06;94896.47;6297268;22;20160;-79
2022/08/04 10:27:54;;;;;;;5.13;3.58;;;;;;;29.65;37.67;94890.41;6296272;22;20163;-80
2022/08/04 10:30:23;;;;;;;5.25;3.00;;;;;;;29.85;37.64;94896.03;6296176;22;20191;-79
2022/08/04 10:32:55;;;;;;;3.65;3.35;;;;;;;30.12;36.79;94898.88;6298692;22;20255;-79
2022/08/04 10:35:25;;;;;;;4.00;3.35;;;;;;;30.22;36.64;94890.38;6298043;22;20805;-81
2022/08/04 10:38:03;;;;;;;8.65;3.45;;;;;;;30.28;35.67;94888.25;6296671;22;20638;-78
2022/08/04 10:40:36;;;;;;;4.30;3.50;;;;;;;30.26;33.01;94898.53;6297128;22;20156;-79
2022/08/04 10:43:09;;;;;;;4.25;3.25;;;;;;;30.19;33.13;94887.56;6297617;22;20221;-76
2022/08/04 10:45:44;;;;;;;4.43;3.25;;;;;;;30.28;34.30;94874.81;6296449;22;20604;-78
2022/08/04 10:48:19;;;;;;;8.55;3.13;;;;;;;30.44;35.04;94880.34;6296915;22;20160;-80
2022/08/04 10:50:58;;;;;;;6.00;3.63;;;;;;;30.78;34.98;94879.81;6297172;22;20176;-78
2022/08/04 10:53:29;;;;;;;3.97;2.90;;;;;;;31.04;34.48;94885.59;6295172;22;20599;-79
2022/08/04 10:56:03;;;;;;;4.75;3.22;;;;;;;31.20;34.57;94877.59;6295689;22;20504;-77
2022/08/04 10:58:35;;;;;;;5.55;3.03;;;;;;;31.52;34.66;94873.06;6296701;22;20160;-78
2022/08/04 11:01:12;;;;;;;5.05;3.20;;;;;;;31.72;34.58;94874.75;6299917;22;20153;-79
2022/08/04 11:03:48;;;;;;;3.40;3.10;;;;;;;31.92;33.34;94877.16;6294500;22;20164;-77
2022/08/04 11:06:16;;;;;;;10.15;3.70;;;;;;;32.20;33.21;94870.94;6297605;22;20529;-80
2022/08/04 11:08:47;;;;;;;6.47;3.05;;;;;;;32.38;33.06;94867.50;6299964;22;20202;-80
2022/08/04 11:11:20;;;;;;;5.05;3.22;;;;;;;32.51;30.76;94878.97;6298203;22;20182;-80
2022/08/04 11:13:52;;;;;;;5.03;3.17;;;;;;;32.51;32.45;94876.28;6297598;22;20148;-80
2022/08/04 11:16:24;;;;;;;9.55;3.10;;;;;;;32.44;31.83;94857.28;6298703;22;20161;-80
2022/08/04 11:19:06;;;;;;;5.15;2.78;;;;;;;32.32;31.58;94868.94;6299794;22;20159;-79
2022/08/04 11:21:39;;;;;;;4.72;2.90;;;;;;;32.39;31.07;94871.00;6297689;22;20149;-79
2022/08/04 11:24:22;;;;;;;4.85;3.13;;;;;;;32.51;31.03;94860.91;6297676;22;20152;-78
2022/08/04 11:26:56;;;;;;;2.92;2.63;;;;;;;32.79;30.36;94858.06;6296568;22;20157;-76
2022/08/04 11:29:42;;;;;;;3.15;2.85;;;;;;;32.91;30.13;94867.91;6295949;22;20571;-79
2022/08/04 11:32:17;;;;;;;3.47;2.35;;;;;;;33.00;28.46;94855.00;6295343;22;20184;-78
2022/08/04 11:34:48;;;;;;;3.65;2.47;;;;;;;33.00;28.33;94860.41;6297512;22;20564;-77
2022/08/04 11:37:21;;;;;;;2.88;2.58;;;;;;;32.79;28.52;94855.34;6297187;22;20618;-78
2022/08/04 11:39:51;;;;;;;3.40;2.60;;;;;;;32.73;29.60;94864.09;6295439;22;20491;-78
2022/08/04 11:42:21;;;;;;;4.45;2.75;;;;;;;32.83;30.17;94850.84;6296322;22;20411;-77
2022/08/04 11:44:51;;;;;;;2.90;2.40;;;;;;;33.02;28.70;94855.44;6296874;22;20230;-79
2022/08/04 11:47:30;;;;;;;4.15;2.60;;;;;;;33.15;28.33;94856.09;6296312;22;20180;-77
2022/08/04 11:50:03;;;;;;;4.03;2.95;;;;;;;33.41;27.66;94851.59;6297139;22;20558;-80
2022/08/04 11:52:32;;;;;;;3.67;2.92;;;;;;;33.51;28.42;94856.41;6298354;22;20662;-81
2022/08/04 11:55:03;;;;;;;3.83;2.47;;;;;;;33.29;27.46;94859.06;6297526;22;20168;-80
2022/08/04 11:57:30;;;;;;;4.18;2.75;;;;;;;33.15;28.33;94851.50;6297481;22;20191;-80
2022/08/04 11:59:58;;;;;;;3.45;2.90;;;;;;;32.92;28.43;94854.09;6296204;22;20172;-80
2022/08/04 12:02:55;;;;;;;3.00;2.70;;;;;;;32.69;29.41;94845.16;6296408;22;20168;-81
2022/08/04 12:05:31;;;;;;;4.25;2.88;;;;;;;32.49;29.20;94844.31;6296501;22;20164;-76
2022/08/04 12:08:11;;;;;;;4.40;2.90;;;;;;;32.30;30.38;94840.78;6294138;22;20217;-77